Time;durP1;ratioP1;P1;durP2;ratioP2;P2;SDS_P1;SDS_P2;PMS_P1;PMS_P2;Temp;Humidity;BMP_temperature;BMP_pressure;BME280_temperature;BME280_humidity;BME280_pressure;Samples;Min_cycle;Max_cycle;Signal;HPM_P1;HPM_P2
2023/02/23 00:01:56;;;;;;;;;;;;;;;-13.32;68.31;99620.91;5105218;28;20090;-69
2023/02/23 00:04:22;;;;;;;0.38;0.20;;;;;;;-13.37;68.30;99629.16;5104947;28;19924;-69
2023/02/23 00:06:50;;;;;;;0.13;0.13;;;;;;;-13.42;68.38;99626.91;5104257;28;20143;-68
2023/02/23 00:09:21;;;;;;;0.10;0.10;;;;;;;-13.43;68.65;99619.97;5103355;28;20043;-68
2023/02/23 00:11:48;;;;;;;0.17;0.17;;;;;;;-13.42;68.81;99619.00;5085509;28;20140;-68
2023/02/23 00:14:14;;;;;;;0.10;0.10;;;;;;;-13.44;68.88;99625.38;5106690;28;20039;-69
2023/02/23 00:16:44;;;;;;;0.10;0.10;;;;;;;-13.46;68.91;99632.56;5086250;28;20052;-68
2023/02/23 00:19:12;;;;;;;0.20;0.20;;;;;;;-13.47;68.73;99626.47;5104245;28;20047;-68
2023/02/23 00:21:39;;;;;;;0.10;0.10;;;;;;;-13.48;68.74;99627.44;5082557;28;20043;-68
2023/02/23 00:24:07;;;;;;;0.10;0.10;;;;;;;-13.51;68.83;99638.19;5104410;28;20036;-68
2023/02/23 00:26:36;;;;;;;0.10;0.10;;;;;;;-13.51;69.07;99642.63;5106966;28;20060;-68
2023/02/23 00:29:05;;;;;;;0.10;0.10;;;;;;;-13.54;68.96;99647.19;5090261;28;20047;-69
2023/02/23 00:31:32;;;;;;;0.10;0.10;;;;;;;-13.58;69.11;99639.66;5105913;28;20056;-68
2023/02/23 00:34:01;;;;;;;0.30;0.30;;;;;;;-13.55;69.11;99645.50;5069958;28;20134;-69
2023/02/23 00:36:31;;;;;;;0.20;0.20;;;;;;;-13.55;69.15;99652.56;5065954;28;20086;-69
2023/02/23 00:38:59;;;;;;;0.20;0.20;;;;;;;-13.54;69.00;99651.59;5067850;28;20051;-68
2023/02/23 00:41:29;;;;;;;0.20;0.20;;;;;;;-13.52;68.93;99656.75;5050315;28;20554;-68
2023/02/23 00:43:58;;;;;;;0.10;0.10;;;;;;;-13.51;68.86;99663.69;5071571;28;20044;-69
2023/02/23 00:46:26;;;;;;;0.10;0.10;;;;;;;-13.52;68.89;99652.31;5067716;28;20176;-68
2023/02/23 00:48:56;;;;;;;0.20;0.20;;;;;;;-13.60;68.94;99644.19;5067439;28;20131;-69
2023/02/23 00:51:29;;;;;;;0.20;0.20;;;;;;;-13.51;69.00;99653.97;5083291;28;20048;-68
2023/02/23 00:53:56;;;;;;;0.20;0.20;;;;;;;-13.50;68.82;99662.72;5052824;28;20051;-68
2023/02/23 00:56:23;;;;;;;0.10;0.10;;;;;;;-13.52;68.84;99662.81;5069197;28;20143;-69
2023/02/23 00:58:49;;;;;;;0.10;0.10;;;;;;;-13.58;68.81;99653.66;5051968;28;20519;-69
2023/02/23 01:01:17;;;;;;;0.10;0.10;;;;;;;-13.63;69.13;99654.97;5066903;28;20133;-69
2023/02/23 01:03:44;;;;;;;0.20;0.20;;;;;;;-13.68;68.98;99666.69;5050435;28;20044;-68
2023/02/23 01:06:13;;;;;;;0.20;0.20;;;;;;;-13.68;69.25;99660.59;5065727;28;20052;-68
2023/02/23 01:08:41;;;;;;;0.20;0.20;;;;;;;-13.76;69.26;99662.97;5084069;28;20071;-68
2023/02/23 01:11:09;;;;;;;0.17;0.17;;;;;;;-13.76;69.35;99666.47;5085418;28;20079;-69
2023/02/23 01:13:36;;;;;;;0.20;0.20;;;;;;;-13.75;69.41;99664.66;5050596;28;20069;-68
2023/02/23 01:16:04;;;;;;;0.20;0.20;;;;;;;-13.82;69.58;99675.66;5085220;28;20036;-69
2023/02/23 01:18:33;;;;;;;0.20;0.20;;;;;;;-13.84;69.52;99679.38;5051801;28;20044;-69
2023/02/23 01:21:01;;;;;;;0.20;0.20;;;;;;;-13.90;69.68;99683.31;5051567;28;20143;-69
2023/02/23 01:23:27;;;;;;;0.10;0.10;;;;;;;-13.89;69.74;99679.75;5086597;28;20048;-68
2023/02/23 01:25:53;;;;;;;0.20;0.20;;;;;;;-13.89;69.81;99681.53;5082661;28;20185;-68
2023/02/23 01:28:19;;;;;;;0.10;0.10;;;;;;;-13.88;69.93;99689.31;5065100;28;20604;-69
2023/02/23 01:30:45;;;;;;;0.10;0.10;;;;;;;-13.90;69.76;99691.19;5084867;28;20609;-68
2023/02/23 01:33:12;;;;;;;0.10;0.10;;;;;;;-13.89;69.69;99694.66;5065637;28;20102;-69
2023/02/23 01:35:39;;;;;;;;;;;;;;;-13.90;69.66;99700.88;5069570;28;20507;-69
2023/02/23 01:38:06;;;;;;;0.22;0.10;;;;;;;-13.92;69.78;99684.41;5084907;28;19924;-69
2023/02/23 01:40:37;;;;;;;0.10;0.10;;;;;;;-14.00;69.74;99693.69;5070646;28;20049;-69
2023/02/23 01:43:12;;;;;;;0.10;0.10;;;;;;;-14.03;69.75;99687.88;5088670;28;20036;-68
2023/02/23 01:45:40;;;;;;;0.10;0.10;;;;;;;-14.03;69.99;99685.25;5104616;28;20051;-69
2023/02/23 01:48:12;;;;;;;0.20;0.20;;;;;;;-14.10;69.95;99690.13;5086316;28;20040;-68
2023/02/23 01:50:47;;;;;;;1.40;0.30;;;;;;;-14.10;70.05;99687.50;5104371;28;20405;-69
2023/02/23 01:53:14;;;;;;;0.10;0.10;;;;;;;-14.13;70.20;99693.81;5088074;28;20056;-70
2023/02/23 01:55:42;;;;;;;0.13;0.13;;;;;;;-14.09;70.04;99688.31;5106117;28;20058;-69
2023/02/23 01:58:14;;;;;;;0.30;0.30;;;;;;;-14.10;70.20;99690.13;5104985;28;20055;-69
2023/02/23 02:00:43;;;;;;;0.10;0.10;;;;;;;-14.11;70.36;99693.72;5086749;28;20051;-69
2023/02/23 02:03:15;;;;;;;0.10;0.10;;;;;;;-14.11;70.63;99689.28;5085764;28;20066;-70
2023/02/23 02:05:44;;;;;;;0.10;0.10;;;;;;;-14.12;70.68;99690.25;5088015;28;20043;-69
2023/02/23 02:08:11;;;;;;;0.47;0.20;;;;;;;-14.13;70.73;99698.22;5103407;28;20052;-69
2023/02/23 02:10:45;;;;;;;0.20;0.20;;;;;;;-14.11;71.16;99709.50;5104926;28;20078;-70
2023/02/23 02:13:20;;;;;;;0.20;0.20;;;;;;;-14.07;70.56;99699.56;5087924;28;20124;-70
2023/02/23 02:16:22;;;;;;;0.10;0.10;;;;;;;-14.05;70.57;99700.25;5076078;28;20059;-69
2023/02/23 02:19:19;;;;;;;0.30;0.30;;;;;;;-14.04;70.86;99715.94;5085705;28;20044;-69
2023/02/23 02:22:21;;;;;;;0.20;0.20;;;;;;;-14.08;70.59;99701.38;5101397;28;20059;-69
2023/02/23 02:25:13;;;;;;;0.10;0.10;;;;;;;-14.05;70.51;99718.66;5103811;28;20083;-69
2023/02/23 02:28:24;;;;;;;0.10;0.10;;;;;;;-14.06;70.29;99717.84;5087032;28;20514;-69
2023/02/23 02:31:29;;;;;;;0.20;0.20;;;;;;;-14.09;70.38;99715.47;5104259;28;20090;-70
2023/02/23 02:34:35;;;;;;;0.10;0.10;;;;;;;-14.12;70.50;99723.59;5056249;28;20060;-69
2023/02/23 02:37:27;;;;;;;0.10;0.10;;;;;;;-14.07;70.62;99718.81;5052975;28;20059;-69
2023/02/23 02:40:15;;;;;;;0.20;0.20;;;;;;;-14.05;70.22;99724.78;5088342;28;20112;-69
2023/02/23 02:42:58;;;;;;;0.20;0.20;;;;;;;-14.09;70.17;99735.63;5052908;28;20067;-69
2023/02/23 02:45:33;;;;;;;0.20;0.20;;;;;;;-14.09;70.33;99730.38;5072858;28;20051;-69
2023/02/23 02:48:05;;;;;;;0.10;0.10;;;;;;;-14.09;70.62;99723.34;5088648;28;20113;-69
2023/02/23 02:50:40;;;;;;;0.10;0.10;;;;;;;-14.09;70.41;99728.59;5090155;28;20225;-69
2023/02/23 02:53:10;;;;;;;0.10;0.10;;;;;;;-14.08;70.67;99724.16;5054485;28;20044;-69
2023/02/23 02:55:42;;;;;;;0.10;0.10;;;;;;;-14.10;70.67;99724.31;5053286;28;20040;-69
2023/02/23 02:58:11;;;;;;;0.10;0.10;;;;;;;-14.22;70.52;99710.28;5068754;28;20051;-69
2023/02/23 04:19:48;;;;;;;0.10;0.10;;;;;;;-14.64;72.02;99762.50;5067173;28;20044;-69
2023/02/23 04:22:14;;;;;;;0.20;0.20;;;;;;;-14.66;72.01;99772.28;5085145;28;20495;-69
2023/02/23 04:24:40;;;;;;;0.20;0.20;;;;;;;-14.65;72.39;99764.25;5087473;28;20572;-70
2023/02/23 04:27:06;;;;;;;0.20;0.20;;;;;;;-14.73;72.31;99772.75;5070359;28;20040;-69
2023/02/23 04:29:33;;;;;;;0.10;0.10;;;;;;;-14.83;72.51;99762.06;5084732;28;20052;-69
2023/02/23 04:31:59;;;;;;;0.20;0.20;;;;;;;-14.76;72.56;99774.75;5084913;28;20059;-69
2023/02/23 04:34:26;;;;;;;0.20;0.20;;;;;;;-14.77;72.82;99775.69;5068357;28;20081;-69
2023/02/23 04:36:52;;;;;;;0.20;0.20;;;;;;;-14.78;72.59;99774.03;5086075;28;20052;-69
2023/02/23 04:39:18;;;;;;;0.20;0.20;;;;;;;-14.75;72.74;99779.03;5087515;28;20040;-69
2023/02/23 04:41:47;;;;;;;0.43;0.20;;;;;;;-14.80;72.66;99775.91;5081584;28;20044;-69
2023/02/23 04:44:13;;;;;;;0.30;0.20;;;;;;;-14.83;72.49;99782.22;5066791;28;20052;-69
2023/02/23 04:46:39;;;;;;;0.10;0.10;;;;;;;-14.84;72.62;99783.19;5065618;28;20040;-69
2023/02/23 04:49:06;;;;;;;0.10;0.10;;;;;;;-14.84;72.71;99785.81;5067771;28;20051;-70
2023/02/23 04:51:35;;;;;;;0.20;0.20;;;;;;;-14.85;72.23;99792.84;5086564;28;20048;-69
2023/02/23 04:54:02;;;;;;;0.20;0.20;;;;;;;-14.77;72.76;99781.78;5066481;28;20048;-69
2023/02/23 04:56:28;;;;;;;0.10;0.10;;;;;;;-14.65;72.55;99777.41;5067444;28;20063;-69
2023/02/23 04:58:54;;;;;;;0.10;0.10;;;;;;;-14.62;71.91;99778.97;5067479;28;20460;-69
2023/02/23 05:01:21;;;;;;;0.10;0.10;;;;;;;-14.61;72.29;99791.97;5068763;28;20044;-69
2023/02/23 05:03:47;;;;;;;0.10;0.10;;;;;;;-14.72;71.63;99789.34;5050939;28;20120;-68
2023/02/23 05:06:14;;;;;;;0.20;0.20;;;;;;;-14.62;71.46;99798.16;5067153;28;20052;-68
2023/02/23 05:08:41;;;;;;;0.10;0.10;;;;;;;-14.65;71.90;99801.03;5085251;28;20048;-69
2023/02/23 05:11:07;;;;;;;;;;;;;;;-14.65;71.72;99808.09;5087119;28;20060;-68
2023/02/23 05:13:33;;;;;;;0.10;0.10;;;;;;;-14.65;71.54;99808.09;5085802;28;20020;-68
2023/02/23 05:16:00;;;;;;;0.10;0.10;;;;;;;-14.57;71.77;99806.56;5065974;28;20120;-68
2023/02/23 05:18:26;;;;;;;0.10;0.10;;;;;;;-14.55;71.42;99811.69;5068894;28;20571;-68
2023/02/23 05:20:53;;;;;;;0.10;0.10;;;;;;;-14.57;71.21;99792.59;5086937;28;20100;-69
2023/02/23 05:23:20;;;;;;;0.10;0.10;;;;;;;-14.50;71.06;99811.38;5070712;28;20392;-68
2023/02/23 05:25:48;;;;;;;0.10;0.10;;;;;;;-14.49;71.03;99823.53;5106663;28;20085;-69
2023/02/23 05:28:14;;;;;;;0.10;0.10;;;;;;;-14.44;70.99;99819.63;5104044;28;20134;-68
2023/02/23 05:30:40;;;;;;;0.20;0.20;;;;;;;-14.44;70.80;99821.41;5102097;28;20611;-68
2023/02/23 05:33:06;;;;;;;0.10;0.10;;;;;;;-14.40;70.46;99817.63;5052380;28;20047;-68
2023/02/23 05:35:32;;;;;;;0.10;0.10;;;;;;;-14.28;70.75;99816.72;5088808;28;20134;-68
2023/02/23 05:38:00;;;;;;;0.17;0.13;;;;;;;-14.20;70.23;99817.94;5104124;28;20521;-68
2023/02/23 05:40:26;;;;;;;0.20;0.20;;;;;;;-14.25;69.92;99829.63;5105699;28;20297;-69
2023/02/23 05:42:59;;;;;;;0.10;0.10;;;;;;;-14.23;70.35;99821.59;5080593;28;20047;-68
2023/02/23 05:45:25;;;;;;;0.20;0.20;;;;;;;-14.13;69.83;99821.75;5087743;28;20462;-69
2023/02/23 05:47:51;;;;;;;0.17;0.13;;;;;;;-14.09;69.88;99825.84;5105101;28;20499;-69
2023/02/23 05:50:17;;;;;;;0.10;0.10;;;;;;;-14.00;69.59;99819.06;5071389;28;20438;-70
2023/02/23 05:52:44;;;;;;;0.20;0.20;;;;;;;-13.96;69.38;99825.75;5083767;28;20253;-69
2023/02/23 05:55:11;;;;;;;0.20;0.20;;;;;;;-13.95;68.88;99823.97;5085321;28;20336;-70
2023/02/23 05:57:37;;;;;;;0.10;0.10;;;;;;;-14.04;68.65;99836.03;5070283;28;20043;-69
2023/02/23 06:00:06;;;;;;;0.20;0.20;;;;;;;-14.22;68.78;99833.78;5102940;28;20426;-70
2023/02/23 06:02:33;;;;;;;0.20;0.20;;;;;;;-14.22;69.10;99836.41;5085184;28;21333;-69
2023/02/23 06:04:59;;;;;;;0.10;0.10;;;;;;;-14.04;69.45;99828.13;5086463;28;20474;-69
2023/02/23 06:07:28;;;;;;;0.20;0.20;;;;;;;-13.91;68.96;99828.03;5103701;28;20047;-69
2023/02/23 06:09:54;;;;;;;0.10;0.10;;;;;;;-13.80;68.70;99835.13;5077359;28;20092;-69
2023/02/23 06:12:22;;;;;;;0.20;0.20;;;;;;;-13.75;68.60;99835.59;5091828;28;20146;-70
2023/02/23 06:14:49;;;;;;;;;;;;;;;-13.68;68.34;99842.06;5088776;28;20063;-69
2023/02/23 06:17:17;;;;;;;0.10;0.10;;;;;;;-13.60;67.93;99839.69;5110794;28;19966;-69
2023/02/23 06:19:42;;;;;;;;;;;;;;;-13.48;67.86;99848.44;5089705;28;20079;-70
2023/02/23 06:22:09;;;;;;;0.20;0.20;;;;;;;-13.45;67.27;99845.56;5107156;28;20068;-69
2023/02/23 06:24:35;;;;;;;0.20;0.20;;;;;;;-13.52;67.29;99840.91;5088174;28;20043;-69
2023/02/23 06:27:01;;;;;;;0.20;0.20;;;;;;;-13.48;67.46;99852.84;5068177;28;20048;-70
2023/02/23 06:29:27;;;;;;;0.10;0.10;;;;;;;-13.46;67.18;99836.00;5064849;28;20077;-70
2023/02/23 06:31:53;;;;;;;0.20;0.20;;;;;;;-13.37;67.29;99837.06;5080252;28;20498;-69
2023/02/23 06:34:21;;;;;;;0.20;0.20;;;;;;;-13.28;67.02;99843.38;5107013;28;20060;-69
2023/02/23 06:36:47;;;;;;;0.10;0.10;;;;;;;-13.28;66.82;99846.03;5109194;28;20043;-70
2023/02/23 06:39:13;;;;;;;0.10;0.10;;;;;;;-13.21;66.75;99844.56;5110472;28;20044;-70
2023/02/23 06:41:39;;;;;;;0.20;0.20;;;;;;;-13.33;65.86;99841.13;5107670;28;20040;-69
2023/02/23 06:44:06;;;;;;;0.13;0.13;;;;;;;-13.33;66.46;99849.00;5105858;28;20044;-70
2023/02/23 06:46:32;;;;;;;0.20;0.20;;;;;;;-13.29;66.12;99857.50;5097729;28;20597;-69
2023/02/23 06:48:58;;;;;;;0.20;0.20;;;;;;;-13.25;66.28;99853.69;5080897;28;20046;-70
2023/02/23 06:51:26;;;;;;;0.20;0.20;;;;;;;-13.20;65.99;99854.13;5101221;28;20145;-70
2023/02/23 06:53:52;;;;;;;0.15;0.15;;;;;;;-13.12;65.97;99864.94;5101203;28;20051;-70
2023/02/23 06:56:18;;;;;;;0.27;0.27;;;;;;;-13.12;65.47;99851.75;5087662;28;20050;-68
2023/02/23 06:58:45;;;;;;;0.30;0.30;;;;;;;-13.11;65.83;99860.47;5106838;28;20094;-69
2023/02/23 07:01:11;;;;;;;0.30;0.30;;;;;;;-12.92;65.60;99874.84;5082252;28;20052;-70
2023/02/23 07:03:38;;;;;;;0.50;0.40;;;;;;;-12.96;65.17;99861.09;5098439;28;20048;-69
2023/02/23 07:06:04;;;;;;;0.20;0.20;;;;;;;-12.85;65.33;99865.50;5085161;28;20177;-69
2023/02/23 07:08:32;;;;;;;0.17;0.17;;;;;;;-12.71;65.23;99872.31;5083814;28;20089;-69
2023/02/23 07:11:06;;;;;;;0.20;0.20;;;;;;;-12.50;64.72;99868.91;5100262;28;20051;-69
2023/02/23 07:13:32;;;;;;;0.30;0.30;;;;;;;-12.38;63.95;99864.44;5068896;28;20051;-70
2023/02/23 07:15:58;;;;;;;0.30;0.30;;;;;;;-12.30;63.89;99873.41;5062256;28;20379;-69
2023/02/23 07:18:24;;;;;;;0.20;0.20;;;;;;;-12.16;63.47;99867.00;5077251;28;20043;-68
2023/02/23 07:20:51;;;;;;;0.10;0.10;;;;;;;-12.03;63.24;99876.53;5093403;28;20158;-68
2023/02/23 07:23:18;;;;;;;0.30;0.30;;;;;;;-11.89;63.08;99872.72;5098002;28;20154;-69
2023/02/23 07:25:45;;;;;;;0.20;0.20;;;;;;;-11.84;62.66;99867.91;5097507;28;20338;-70
2023/02/23 07:28:13;;;;;;;0.60;0.30;;;;;;;-11.85;62.59;99882.91;5097059;28;20413;-70
2023/02/23 07:30:39;;;;;;;0.20;0.20;;;;;;;-11.69;63.01;99894.81;5095052;28;20131;-70
2023/02/23 07:33:06;;;;;;;0.35;0.35;;;;;;;-11.48;62.47;99878.13;5096608;28;20047;-70
2023/02/23 07:35:32;;;;;;;0.30;0.30;;;;;;;-11.16;62.49;99880.69;5096145;28;20552;-70
2023/02/23 07:37:58;;;;;;;0.40;0.40;;;;;;;-10.72;61.08;99874.28;5100920;28;20568;-69
2023/02/23 07:40:25;;;;;;;0.40;0.40;;;;;;;-10.34;60.54;99880.59;5080272;28;20082;-70
2023/02/23 07:42:54;;;;;;;0.45;0.45;;;;;;;-9.88;59.55;99883.53;5066370;28;20055;-70
2023/02/23 07:45:20;;;;;;;0.33;0.33;;;;;;;-9.51;58.31;99887.25;5100892;28;20142;-70
2023/02/23 07:47:46;;;;;;;0.30;0.30;;;;;;;-9.33;57.39;99892.69;5069501;28;20039;-70
2023/02/23 07:50:13;;;;;;;0.43;0.40;;;;;;;-9.28;56.74;99890.41;5060033;28;20054;-69
2023/02/23 07:52:40;;;;;;;0.43;0.20;;;;;;;-9.04;56.41;99881.16;5096524;28;20044;-69
2023/02/23 07:55:08;;;;;;;0.43;0.43;;;;;;;-8.48;55.49;99885.59;5079166;28;20070;-69
2023/02/23 07:57:34;;;;;;;0.27;0.27;;;;;;;-7.98;54.46;99893.06;5079607;28;20384;-69
2023/02/23 08:00:03;;;;;;;0.50;0.50;;;;;;;-7.76;53.16;99887.47;5075797;28;20044;-69
2023/02/23 08:02:40;;;;;;;0.30;0.30;;;;;;;-7.30;52.33;99888.13;5077614;28;20090;-69
2023/02/23 08:05:07;;;;;;;0.30;0.30;;;;;;;-7.28;52.24;99891.47;5059970;28;20454;-69
2023/02/23 08:07:33;;;;;;;0.20;0.20;;;;;;;-6.93;51.71;99888.00;5096408;28;20040;-69
2023/02/23 08:10:00;;;;;;;0.20;0.20;;;;;;;-6.71;50.70;99870.66;5058996;28;20055;-69
2023/02/23 08:12:28;;;;;;;0.53;0.40;;;;;;;-6.36;49.66;99868.75;5092181;28;20054;-69
2023/02/23 08:14:55;;;;;;;0.47;0.30;;;;;;;-6.23;49.44;99878.13;5078600;28;20044;-69
2023/02/23 08:17:22;;;;;;;0.20;0.20;;;;;;;-5.68;48.94;99881.97;5095810;28;20123;-69
2023/02/23 08:19:49;;;;;;;;;;;;;;;-4.95;47.36;99878.53;5093464;28;20056;-69
2023/02/23 08:22:15;;;;;;;0.50;0.50;;;;;;;-4.47;46.33;99859.81;5095186;28;19930;-69
2023/02/23 08:24:46;;;;;;;0.30;0.30;;;;;;;-4.18;45.02;99866.34;5057637;28;20051;-71
2023/02/23 08:27:12;;;;;;;0.50;0.30;;;;;;;-4.10;44.59;99871.66;5097564;28;20503;-69
2023/02/23 08:29:39;;;;;;;0.30;0.30;;;;;;;-3.95;44.09;99870.88;5075542;28;20051;-69
2023/02/23 08:32:05;;;;;;;0.30;0.30;;;;;;;-4.02;44.30;99860.06;5095115;28;20059;-69
2023/02/23 08:34:36;;;;;;;0.20;0.20;;;;;;;-3.91;44.01;99864.16;5073114;28;20518;-69
2023/02/23 08:37:04;;;;;;;0.30;0.30;;;;;;;-3.45;43.27;99858.78;5077516;28;20043;-69
2023/02/23 08:39:30;;;;;;;0.30;0.30;;;;;;;-3.59;42.96;99871.09;5092501;28;20189;-69
2023/02/23 08:41:56;;;;;;;0.20;0.20;;;;;;;-3.58;42.67;99874.59;5088768;28;20040;-69
2023/02/23 08:44:22;;;;;;;0.30;0.30;;;;;;;-3.33;43.04;99874.38;5059384;28;20464;-69
2023/02/23 08:46:48;;;;;;;0.20;0.20;;;;;;;-3.06;41.85;99872.94;5074974;28;20071;-69
2023/02/23 08:49:14;;;;;;;0.30;0.30;;;;;;;-2.85;41.82;99874.88;5101984;28;20051;-69
2023/02/23 08:51:45;;;;;;;0.20;0.20;;;;;;;-2.23;40.54;99873.78;5096265;28;20073;-68
2023/02/23 08:54:13;;;;;;;0.23;0.23;;;;;;;-1.95;39.71;99873.03;5076509;28;20036;-69
2023/02/23 08:56:39;;;;;;;0.20;0.20;;;;;;;-1.86;39.08;99882.63;5079785;28;20127;-69
2023/02/23 08:59:06;;;;;;;0.30;0.30;;;;;;;-1.80;39.04;99879.16;5098261;28;20135;-69
2023/02/23 09:01:32;;;;;;;0.20;0.20;;;;;;;-1.78;38.78;99884.34;5074856;28;20063;-69
2023/02/23 09:03:59;;;;;;;0.30;0.30;;;;;;;-1.61;39.03;99880.38;5097954;28;20550;-69
2023/02/23 09:06:26;;;;;;;0.30;0.30;;;;;;;-1.15;38.25;99887.16;5095587;28;20058;-69
2023/02/23 09:08:54;;;;;;;0.30;0.30;;;;;;;-0.91;37.38;99887.72;5067109;28;20040;-69
2023/02/23 09:11:21;;;;;;;0.30;0.30;;;;;;;-0.74;37.35;99885.53;5074231;28;20479;-69
2023/02/23 09:13:47;;;;;;;0.30;0.30;;;;;;;-0.45;37.20;99872.88;5062916;28;20044;-69
2023/02/23 09:16:13;;;;;;;0.30;0.30;;;;;;;-0.36;35.94;99862.78;5083939;28;20415;-69
2023/02/23 09:18:39;;;;;;;0.50;0.50;;;;;;;-0.54;36.39;99882.13;5075969;28;20135;-68
2023/02/23 09:21:07;;;;;;;0.40;0.40;;;;;;;-0.27;36.00;99867.97;5093213;28;20630;-68
2023/02/23 09:23:34;;;;;;;0.30;0.30;;;;;;;0.19;36.15;99886.06;5093982;28;20127;-68
2023/02/23 09:26:04;;;;;;;0.40;0.40;;;;;;;0.21;35.30;99873.25;5093389;28;20048;-69
2023/02/23 09:28:32;;;;;;;0.40;0.40;;;;;;;0.34;34.83;99877.84;5094969;28;20496;-68
2023/02/23 09:31:03;;;;;;;0.30;0.30;;;;;;;0.12;34.63;99885.25;5076447;28;20400;-69
2023/02/23 09:33:30;;;;;;;0.40;0.40;;;;;;;-0.01;35.58;99875.25;5096486;28;20504;-69
2023/02/23 09:35:56;;;;;;;0.55;0.47;;;;;;;0.75;34.54;99875.13;5074566;28;20040;-69
2023/02/23 09:38:23;;;;;;;0.35;0.35;;;;;;;1.34;33.29;99873.38;5078259;28;20096;-69
2023/02/23 09:40:54;;;;;;;0.50;0.50;;;;;;;1.61;32.85;99869.75;5067953;28;20096;-69
2023/02/23 09:43:29;;;;;;;0.40;0.40;;;;;;;1.36;32.93;99870.47;5060754;28;20278;-69
2023/02/23 09:46:02;;;;;;;0.50;0.50;;;;;;;1.84;32.58;99861.97;5097701;28;20097;-69
2023/02/23 09:48:28;;;;;;;0.40;0.40;;;;;;;2.25;32.09;99857.16;5098856;28;20055;-69
2023/02/23 09:50:56;;;;;;;0.47;0.47;;;;;;;2.60;30.82;99858.56;5080526;28;20407;-69
2023/02/23 09:53:37;;;;;;;0.50;0.50;;;;;;;2.46;30.67;99852.44;5100222;28;20047;-69
2023/02/23 09:56:10;;;;;;;0.50;0.50;;;;;;;2.20;31.85;99864.28;5063421;28;20036;-69
2023/02/23 09:58:39;;;;;;;0.50;0.50;;;;;;;2.89;31.20;99874.28;5098230;28;20052;-68
2023/02/23 10:01:33;;;;;;;0.60;0.60;;;;;;;3.94;29.83;99864.38;5081126;28;20044;-69
2023/02/23 10:04:09;;;;;;;0.60;0.60;;;;;;;3.89;28.84;99866.09;5082904;28;20082;-70
2023/02/23 10:06:38;;;;;;;0.50;0.50;;;;;;;3.57;28.23;99860.88;5100142;28;20043;-70
2023/02/23 10:09:18;;;;;;;0.60;0.60;;;;;;;2.81;29.24;99851.94;5101729;28;20422;-69
2023/02/23 10:11:50;;;;;;;0.60;0.60;;;;;;;2.84;29.67;99845.28;5097928;28;20043;-69
2023/02/23 10:14:34;;;;;;;0.60;0.60;;;;;;;3.22;29.50;99840.72;5063599;28;20088;-68
2023/02/23 10:17:14;;;;;;;0.60;0.60;;;;;;;4.00;28.87;99851.81;5097717;28;20134;-69
2023/02/23 10:19:49;;;;;;;0.70;0.70;;;;;;;4.33;27.94;99849.66;5076881;28;20062;-69
2023/02/23 10:22:19;;;;;;;0.65;0.65;;;;;;;4.33;28.17;99847.78;5075886;28;20116;-69
2023/02/23 10:24:51;;;;;;;0.65;0.65;;;;;;;4.59;26.99;99851.13;5075460;28;20088;-69
2023/02/23 10:27:20;;;;;;;0.70;0.70;;;;;;;4.57;27.67;99845.13;5083899;28;20050;-69
2023/02/23 10:29:50;;;;;;;0.70;0.70;;;;;;;4.99;26.53;99840.63;5102209;28;20070;-69
2023/02/23 10:32:23;;;;;;;0.70;0.70;;;;;;;4.63;26.33;99840.66;5096990;28;20048;-70
2023/02/23 10:34:52;;;;;;;0.70;0.70;;;;;;;4.54;26.58;99832.84;5092651;28;20054;-70
2023/02/23 10:37:21;;;;;;;0.70;0.70;;;;;;;3.99;26.77;99833.09;5094615;28;20072;-69
2023/02/23 10:39:50;;;;;;;0.60;0.60;;;;;;;4.28;26.77;99833.28;5077799;28;20092;-70
2023/02/23 10:42:21;;;;;;;0.70;0.70;;;;;;;4.59;26.33;99844.84;5098514;28;20050;-69
2023/02/23 10:44:49;;;;;;;0.70;0.70;;;;;;;4.29;26.18;99833.06;5092768;28;20182;-70
2023/02/23 10:47:19;;;;;;;0.80;0.80;;;;;;;4.18;26.08;99829.28;5079426;28;20284;-68
2023/02/23 10:49:48;;;;;;;0.80;0.80;;;;;;;3.85;26.29;99824.34;5094706;28;20047;-69
2023/02/23 10:52:22;;;;;;;0.70;0.70;;;;;;;3.71;26.35;99826.41;5063867;28;20442;-69
2023/02/23 10:54:50;;;;;;;0.80;0.80;;;;;;;3.67;26.50;99824.16;5095776;28;20071;-70
2023/02/23 10:57:22;;;;;;;0.80;0.80;;;;;;;4.15;26.71;99847.84;5083076;28;20571;-70
2023/02/23 11:00:25;;;;;;;0.80;0.80;;;;;;;4.24;26.47;99838.34;5075202;28;20040;-70
2023/02/23 11:02:54;;;;;;;0.80;0.80;;;;;;;4.69;25.65;99831.56;5076443;28;20139;-70
2023/02/23 11:05:35;;;;;;;0.80;0.80;;;;;;;4.62;25.46;99836.28;5078989;28;20409;-69
2023/02/23 11:08:21;;;;;;;0.80;0.80;;;;;;;4.13;25.43;99845.34;5105117;28;20457;-69
2023/02/23 11:11:19;;;;;;;0.80;0.80;;;;;;;3.88;26.18;99829.28;5098786;28;20051;-70
2023/02/23 11:13:47;;;;;;;0.70;0.70;;;;;;;4.27;26.16;99848.72;5088267;28;20063;-70
2023/02/23 11:16:17;;;;;;;0.80;0.80;;;;;;;4.54;26.30;99838.28;5093865;28;20052;-70
2023/02/23 11:18:53;;;;;;;0.80;0.80;;;;;;;3.78;27.42;99835.25;5096594;28;20156;-70
2023/02/23 11:21:24;;;;;;;1.00;0.90;;;;;;;2.96;28.44;99831.84;5094740;28;20053;-70
2023/02/23 11:23:52;;;;;;;1.30;0.90;;;;;;;2.30;29.33;99824.13;5099015;28;20207;-69
2023/02/23 11:26:23;;;;;;;0.80;0.80;;;;;;;1.97;29.57;99819.78;5089826;28;20503;-69
2023/02/23 11:28:53;;;;;;;0.80;0.80;;;;;;;1.88;29.61;99826.50;5042312;28;20441;-69
2023/02/23 11:31:27;;;;;;;0.80;0.80;;;;;;;1.84;30.06;99826.91;5097631;28;20124;-71
2023/02/23 11:33:54;;;;;;;0.70;0.70;;;;;;;1.90;29.98;99836.00;5098699;28;20073;-70
2023/02/23 11:36:27;;;;;;;0.70;0.70;;;;;;;2.63;28.91;99835.69;5096162;28;20048;-69
2023/02/23 11:39:03;;;;;;;0.80;0.80;;;;;;;2.41;28.90;99826.09;5098451;28;20064;-70
2023/02/23 11:41:31;;;;;;;0.80;0.80;;;;;;;2.28;29.31;99825.41;5046217;28;20182;-69
2023/02/23 11:44:00;;;;;;;0.82;0.82;;;;;;;1.97;29.88;99835.97;5060442;28;20043;-70
2023/02/23 11:46:30;;;;;;;0.80;0.80;;;;;;;2.17;29.31;99838.53;5096239;28;20055;-69
2023/02/23 11:49:02;;;;;;;0.88;0.80;;;;;;;1.39;30.41;99829.63;5096302;28;20680;-70
2023/02/23 11:51:31;;;;;;;0.80;0.80;;;;;;;1.61;30.48;99832.84;5077534;28;20529;-69
2023/02/23 11:53:59;;;;;;;0.90;0.90;;;;;;;2.33;29.63;99829.06;5080698;28;20072;-68
2023/02/23 11:56:27;;;;;;;0.77;0.77;;;;;;;2.16;29.36;99828.78;5094472;28;20044;-68
2023/02/23 11:58:56;;;;;;;0.90;0.90;;;;;;;2.12;29.68;99824.88;5097850;28;20054;-68
2023/02/23 12:01:36;;;;;;;0.90;0.90;;;;;;;2.51;29.20;99835.59;5077591;28;20052;-68
2023/02/23 12:04:03;;;;;;;0.80;0.80;;;;;;;2.60;28.68;99825.34;5095857;28;20044;-68
2023/02/23 12:06:31;;;;;;;0.80;0.80;;;;;;;2.39;29.52;99821.97;5095539;28;20047;-69
2023/02/23 12:09:11;;;;;;;0.80;0.80;;;;;;;3.46;28.29;99817.38;5097116;28;20430;-68
2023/02/23 12:11:43;;;;;;;0.82;0.82;;;;;;;4.14;26.98;99819.13;5079180;28;20298;-69
2023/02/23 12:14:16;;;;;;;1.48;0.90;;;;;;;3.24;27.92;99831.31;5077828;28;20604;-69
2023/02/23 12:16:47;;;;;;;0.80;0.80;;;;;;;4.30;27.57;99821.16;5096176;28;20047;-69
2023/02/23 12:19:24;;;;;;;0.90;0.90;;;;;;;5.25;26.04;99829.28;5097457;28;20396;-68
2023/02/23 12:21:57;;;;;;;0.90;0.90;;;;;;;4.61;26.25;99824.63;5078300;28;20047;-69
2023/02/23 12:24:36;;;;;;;0.90;0.90;;;;;;;3.79;26.99;99824.22;5097169;28;20574;-69
2023/02/23 12:27:11;;;;;;;0.80;0.80;;;;;;;3.07;28.01;99830.28;5078318;28;20427;-69
2023/02/23 12:29:49;;;;;;;0.80;0.80;;;;;;;2.61;28.64;99821.59;5098849;28;20047;-69
2023/02/23 12:32:19;;;;;;;0.80;0.80;;;;;;;2.44;29.54;99824.00;5079311;28;20113;-69
2023/02/23 12:34:52;;;;;;;0.80;0.80;;;;;;;2.91;28.48;99832.50;5104046;28;20119;-69
2023/02/23 12:37:33;;;;;;;0.80;0.80;;;;;;;2.54;28.84;99824.34;5105418;28;20543;-69
2023/02/23 12:40:10;;;;;;;0.90;0.90;;;;;;;2.39;29.11;99827.38;5099252;28;20046;-69
2023/02/23 12:42:42;;;;;;;0.80;0.80;;;;;;;2.35;28.97;99818.91;5096393;28;20040;-69
2023/02/23 12:45:17;;;;;;;0.90;0.90;;;;;;;2.50;29.08;99829.34;5102386;28;20585;-68
2023/02/23 12:47:50;;;;;;;0.80;0.80;;;;;;;2.17;29.12;99832.31;5076648;28;20472;-69
2023/02/23 12:50:26;;;;;;;0.85;0.85;;;;;;;1.81;29.72;99832.75;5096528;28;20054;-69
2023/02/23 12:52:56;;;;;;;0.80;0.80;;;;;;;1.61;30.15;99830.13;5098679;28;20096;-70
2023/02/23 12:55:32;;;;;;;0.80;0.80;;;;;;;2.45;29.07;99834.59;5096575;28;20472;-70
2023/02/23 12:58:06;;;;;;;0.80;0.80;;;;;;;2.02;29.33;99832.63;5096289;28;20035;-70
2023/02/23 13:00:47;;;;;;;0.73;0.73;;;;;;;1.28;30.35;99836.50;5077703;28;20039;-70
2023/02/23 13:03:42;;;;;;;0.70;0.70;;;;;;;1.64;29.84;99828.91;5075845;28;20509;-70
2023/02/23 13:06:15;;;;;;;0.77;0.77;;;;;;;1.64;30.42;99847.75;5094848;28;20612;-70
2023/02/23 13:08:57;;;;;;;0.80;0.80;;;;;;;1.93;29.48;99838.25;5094469;28;20083;-70